Time;durP1;ratioP1;P1;durP2;ratioP2;P2;SDS_P1;SDS_P2;PMS_P1;PMS_P2;Temp;Humidity;BMP_temperature;BMP_pressure;BME280_temperature;BME280_humidity;BME280_pressure;Samples;Min_cycle;Max_cycle;Signal;HPM_P1;HPM_P2
2023/03/06 00:00:04;;;;;;;21.13;19.13;;;;;;;;;;519164;28;1426;-73
2023/03/06 00:00:23;;;;;;;21.20;19.25;;;;;;;;;;516623;28;1581;-74
2023/03/06 00:00:49;;;;;;;21.83;19.83;;;;;;;;;;519047;28;1367;-73
2023/03/06 00:01:07;;;;;;;22.27;20.17;;;;;;;;;;517285;28;1256;-73
2023/03/06 00:01:22;;;;;;;21.73;19.80;;;;;;;;;;516877;28;1371;-73
2023/03/06 00:01:38;;;;;;;21.67;19.67;;;;;;;;;;516676;28;1448;-73
2023/03/06 00:01:53;;;;;;;22.00;19.90;;;;;;;;;;516287;28;1294;-73
2023/03/06 00:02:09;;;;;;;22.27;20.07;;;;;;;;;;515750;28;1416;-73
2023/03/06 00:02:24;;;;;;;22.23;20.03;;;;;;;;;;516474;28;1348;-73
2023/03/06 00:02:39;;;;;;;22.00;20.00;;;;;;;;;;514270;28;1400;-73
2023/03/06 00:02:55;;;;;;;21.97;19.97;;;;;;;;;;516428;28;1351;-73
2023/03/06 00:03:11;;;;;;;22.13;20.02;;;;;;;;;;513985;28;1333;-73
2023/03/06 00:03:26;;;;;;;21.77;19.70;;;;;;;;;;518989;28;1512;-73
2023/03/06 00:03:42;;;;;;;21.80;19.77;;;;;;;;;;517571;28;1642;-73
2023/03/06 00:03:57;;;;;;;21.43;19.43;;;;;;;;;;519610;28;1340;-72
2023/03/06 00:04:12;;;;;;;20.80;18.83;;;;;;;;;;519369;28;1359;-73
2023/03/06 00:04:28;;;;;;;20.93;19.00;;;;;;;;;;516663;28;1214;-73
2023/03/06 00:04:43;;;;;;;21.00;19.08;;;;;;;;;;518394;28;1720;-73
2023/03/06 00:04:58;;;;;;;21.20;19.10;;;;;;;;;;515198;28;1321;-73
2023/03/06 00:05:14;;;;;;;21.23;19.13;;;;;;;;;;516829;28;1910;-74
2023/03/06 00:05:30;;;;;;;20.83;18.85;;;;;;;;;;515322;28;1411;-72
2023/03/06 00:05:46;;;;;;;20.30;18.40;;;;;;;;;;518780;28;1408;-73
2023/03/06 00:06:02;;;;;;;19.95;18.05;;;;;;;;;;516671;28;1652;-73
2023/03/06 00:06:17;;;;;;;20.83;18.80;;;;;;;;;;517415;28;1497;-73
2023/03/06 00:06:33;;;;;;;21.23;19.23;;;;;;;;;;517790;28;1398;-73
2023/03/06 00:06:48;;;;;;;20.40;18.52;;;;;;;;;;517564;28;1563;-73
2023/03/06 00:07:03;;;;;;;20.00;18.20;;;;;;;;;;518305;28;1471;-72
2023/03/06 00:07:19;;;;;;;19.90;18.10;;;;;;;;;;514646;28;1329;-72
2023/03/06 00:07:34;;;;;;;20.23;18.33;;;;;;;;;;513270;28;1579;-73
2023/03/06 00:07:49;;;;;;;20.97;18.97;;;;;;;;;;513005;28;1490;-73
2023/03/06 00:08:05;;;;;;;21.13;19.10;;;;;;;;;;516004;28;1329;-73
2023/03/06 00:08:20;;;;;;;20.47;18.47;;;;;;;;;;515208;28;1528;-73
2023/03/06 00:08:36;;;;;;;19.52;17.67;;;;;;;;;;517074;28;1333;-73
2023/03/06 00:08:51;;;;;;;19.50;17.63;;;;;;;;;;517833;28;1458;-73
2023/03/06 00:09:08;;;;;;;19.67;17.83;;;;;;;;;;521743;28;1252;-73
2023/03/06 00:09:24;;;;;;;19.98;18.17;;;;;;;;;;518060;28;1405;-73
2023/03/06 00:09:39;;;;;;;19.90;18.10;;;;;;;;;;517282;28;1410;-73
2023/03/06 00:09:54;;;;;;;20.47;18.53;;;;;;;;;;516205;28;1516;-73
2023/03/06 00:10:22;;;;;;;21.43;19.43;;;;;;;;;;517099;28;1487;-74
2023/03/06 00:10:39;;;;;;;21.08;19.10;;;;;;;;;;515051;28;1473;-73
2023/03/06 00:10:55;;;;;;;20.80;18.90;;;;;;;;;;517690;28;1369;-73
2023/03/06 00:11:13;;;;;;;20.75;18.75;;;;;;;;;;515589;28;1443;-73
2023/03/06 00:11:28;;;;;;;20.23;18.33;;;;;;;;;;517890;28;1427;-73
2023/03/06 00:11:44;;;;;;;20.57;18.70;;;;;;;;;;518199;28;1481;-73
2023/03/06 00:11:59;;;;;;;21.50;19.47;;;;;;;;;;519097;28;1506;-73
2023/03/06 00:12:14;;;;;;;22.07;19.87;;;;;;;;;;517959;28;1288;-73
2023/03/06 00:12:30;;;;;;;21.20;19.20;;;;;;;;;;517861;28;1306;-73
2023/03/06 00:12:45;;;;;;;20.80;18.90;;;;;;;;;;520728;28;1342;-73
2023/03/06 00:13:04;;;;;;;20.58;18.65;;;;;;;;;;518700;28;1470;-73
2023/03/06 00:13:19;;;;;;;20.57;18.57;;;;;;;;;;517229;28;1500;-73
2023/03/06 00:13:35;;;;;;;21.57;19.47;;;;;;;;;;516324;28;1275;-73
2023/03/06 00:13:51;;;;;;;21.93;19.73;;;;;;;;;;514210;28;1355;-74
2023/03/06 00:14:09;;;;;;;21.77;19.67;;;;;;;;;;515721;28;1456;-73
2023/03/06 00:14:25;;;;;;;22.08;20.00;;;;;;;;;;518527;28;1283;-73
2023/03/06 00:14:40;;;;;;;22.13;20.03;;;;;;;;;;517498;28;1418;-74
2023/03/06 00:14:55;;;;;;;22.38;20.20;;;;;;;;;;517962;28;1374;-73
2023/03/06 00:15:12;;;;;;;22.40;20.20;;;;;;;;;;515957;28;1297;-74
2023/03/06 00:15:28;;;;;;;21.50;19.35;;;;;;;;;;518958;28;1314;-73
2023/03/06 00:15:44;;;;;;;20.90;18.90;;;;;;;;;;522503;28;1547;-73
2023/03/06 00:16:00;;;;;;;20.30;18.40;;;;;;;;;;519532;28;1309;-74
2023/03/06 00:16:15;;;;;;;19.98;18.13;;;;;;;;;;518529;28;1394;-73
2023/03/06 00:16:30;;;;;;;20.35;18.45;;;;;;;;;;518329;28;1616;-73
2023/03/06 00:16:46;;;;;;;20.20;18.30;;;;;;;;;;520095;28;1257;-74
2023/03/06 00:17:01;;;;;;;20.20;18.30;;;;;;;;;;516656;28;1404;-73
2023/03/06 00:17:16;;;;;;;20.52;18.60;;;;;;;;;;517778;28;1364;-73
2023/03/06 00:17:32;;;;;;;20.70;18.70;;;;;;;;;;516412;28;1361;-73
2023/03/06 00:17:47;;;;;;;20.73;18.77;;;;;;;;;;520403;28;1477;-73
2023/03/06 00:18:03;;;;;;;20.95;18.95;;;;;;;;;;520446;28;1391;-74
2023/03/06 00:18:19;;;;;;;21.52;19.42;;;;;;;;;;519073;28;1312;-73
2023/03/06 00:18:34;;;;;;;21.90;19.80;;;;;;;;;;520088;28;1253;-73
2023/03/06 00:18:50;;;;;;;22.10;19.93;;;;;;;;;;519322;28;1301;-74
2023/03/06 00:19:05;;;;;;;22.08;19.88;;;;;;;;;;522510;28;1185;-73
2023/03/06 00:19:22;;;;;;;21.43;19.43;;;;;;;;;;519819;28;1310;-73
2023/03/06 00:19:37;;;;;;;21.45;19.33;;;;;;;;;;520016;28;1424;-74
2023/03/06 00:19:52;;;;;;;21.27;19.07;;;;;;;;;;519766;28;1417;-74
2023/03/06 00:20:10;;;;;;;20.83;18.83;;;;;;;;;;517699;28;1244;-74
2023/03/06 00:20:26;;;;;;;20.58;18.67;;;;;;;;;;520996;28;1544;-73
2023/03/06 00:20:42;;;;;;;20.90;18.98;;;;;;;;;;522693;28;1347;-73
2023/03/06 00:20:58;;;;;;;21.20;19.30;;;;;;;;;;519844;28;1441;-73
2023/03/06 00:21:14;;;;;;;21.73;19.73;;;;;;;;;;519036;28;1380;-73
2023/03/06 00:21:29;;;;;;;21.38;19.33;;;;;;;;;;517274;28;1311;-73
2023/03/06 00:21:44;;;;;;;20.83;18.87;;;;;;;;;;517472;28;1195;-73
2023/03/06 00:22:00;;;;;;;20.73;18.73;;;;;;;;;;518930;28;1423;-74
2023/03/06 00:22:15;;;;;;;20.70;18.75;;;;;;;;;;517778;28;1402;-73
2023/03/06 00:23:01;;;;;;;20.63;18.73;;;;;;;;;;518752;28;1424;-73
2023/03/06 00:23:17;;;;;;;20.13;18.33;;;;;;;;;;518116;28;1388;-73
2023/03/06 00:23:32;;;;;;;20.30;18.40;;;;;;;;;;518327;28;1412;-73
2023/03/06 00:23:47;;;;;;;20.53;18.60;;;;;;;;;;518797;28;1248;-73
2023/03/06 00:24:03;;;;;;;20.58;18.67;;;;;;;;;;519003;28;1666;-73
2023/03/06 00:24:18;;;;;;;20.57;18.67;;;;;;;;;;516507;28;1396;-73
2023/03/06 00:24:34;;;;;;;21.10;19.20;;;;;;;;;;515654;28;1373;-73
2023/03/06 00:24:52;;;;;;;21.75;19.75;;;;;;;;;;516655;28;1347;-73
2023/03/06 00:25:13;;;;;;;21.55;19.55;;;;;;;;;;517700;28;1934;-73
2023/03/06 00:25:28;;;;;;;21.70;19.60;;;;;;;;;;519377;28;1681;-73
2023/03/06 00:25:44;;;;;;;22.05;19.90;;;;;;;;;;521137;28;1498;-73
2023/03/06 00:26:00;;;;;;;22.52;20.33;;;;;;;;;;520049;28;1370;-74
2023/03/06 00:26:15;;;;;;;22.17;20.10;;;;;;;;;;518748;28;1432;-73
2023/03/06 00:26:32;;;;;;;22.13;20.13;;;;;;;;;;518252;28;1356;-73
2023/03/06 00:26:48;;;;;;;22.60;20.50;;;;;;;;;;518298;28;1140;-73
2023/03/06 00:27:03;;;;;;;23.17;20.97;;;;;;;;;;518708;28;1690;-73
2023/03/06 00:27:19;;;;;;;23.10;20.90;;;;;;;;;;520597;28;1327;-73
2023/03/06 00:27:34;;;;;;;23.08;20.88;;;;;;;;;;520772;28;1424;-74
2023/03/06 00:27:50;;;;;;;23.80;21.50;;;;;;;;;;520835;28;1337;-73
2023/03/06 00:28:06;;;;;;;24.13;21.83;;;;;;;;;;521132;28;1349;-73
2023/03/06 00:28:21;;;;;;;24.17;21.97;;;;;;;;;;519902;28;1534;-73
2023/03/06 00:28:37;;;;;;;23.73;21.42;;;;;;;;;;518686;28;1424;-73
2023/03/06 00:28:52;;;;;;;22.87;20.63;;;;;;;;;;518694;28;1307;-73
2023/03/06 00:29:07;;;;;;;22.60;20.40;;;;;;;;;;517836;28;1236;-74
2023/03/06 00:29:23;;;;;;;23.38;21.08;;;;;;;;;;518568;28;1823;-74
2023/03/06 00:29:38;;;;;;;23.90;21.57;;;;;;;;;;518493;28;1274;-73
2023/03/06 00:29:58;;;;;;;24.15;21.75;;;;;;;;;;513701;28;1405;-73
2023/03/06 00:30:16;;;;;;;23.58;21.27;;;;;;;;;;517323;28;1367;-74
2023/03/06 00:30:32;;;;;;;23.20;20.90;;;;;;;;;;518633;28;1340;-73
2023/03/06 00:30:47;;;;;;;23.87;21.57;;;;;;;;;;516390;28;1440;-73
2023/03/06 00:31:02;;;;;;;23.00;20.85;;;;;;;;;;518192;28;1392;-73
2023/03/06 00:31:18;;;;;;;22.53;20.43;;;;;;;;;;517065;28;1424;-73
2023/03/06 00:31:34;;;;;;;22.00;19.90;;;;;;;;;;517090;28;1348;-73
2023/03/06 00:31:50;;;;;;;22.30;20.10;;;;;;;;;;516392;28;1334;-73
2023/03/06 00:32:05;;;;;;;23.30;21.00;;;;;;;;;;517074;28;1468;-74
2023/03/06 00:32:21;;;;;;;22.60;20.40;;;;;;;;;;517725;28;1387;-73
2023/03/06 00:32:37;;;;;;;22.40;20.20;;;;;;;;;;519744;28;1348;-74
2023/03/06 00:32:52;;;;;;;23.20;20.97;;;;;;;;;;518079;28;1376;-74
2023/03/06 00:33:08;;;;;;;22.83;20.63;;;;;;;;;;518918;28;1315;-73
2023/03/06 00:33:23;;;;;;;21.80;19.73;;;;;;;;;;522367;28;1535;-73
2023/03/06 00:33:38;;;;;;;21.87;19.77;;;;;;;;;;522038;28;1399;-73
2023/03/06 00:33:54;;;;;;;22.20;20.10;;;;;;;;;;520620;28;1270;-74
2023/03/06 00:34:09;;;;;;;21.85;19.85;;;;;;;;;;519639;28;1291;-73
2023/03/06 00:34:24;;;;;;;22.20;20.07;;;;;;;;;;516259;28;1326;-74
2023/03/06 00:34:40;;;;;;;21.90;19.80;;;;;;;;;;513329;28;1399;-73
2023/03/06 00:34:56;;;;;;;20.92;18.92;;;;;;;;;;513982;28;1224;-73
2023/03/06 00:35:12;;;;;;;21.13;19.13;;;;;;;;;;513712;28;1960;-74
2023/03/06 00:35:27;;;;;;;21.75;19.75;;;;;;;;;;513996;28;1034;-74
2023/03/06 00:35:43;;;;;;;21.53;19.43;;;;;;;;;;514810;28;1468;-74
2023/03/06 00:35:58;;;;;;;21.40;19.33;;;;;;;;;;517083;28;1504;-73
2023/03/06 00:36:13;;;;;;;22.30;20.20;;;;;;;;;;517439;28;1713;-73
2023/03/06 00:36:29;;;;;;;21.83;19.83;;;;;;;;;;518074;28;1308;-73
2023/03/06 00:36:44;;;;;;;21.13;19.13;;;;;;;;;;519231;28;1441;-73
2023/03/06 00:36:59;;;;;;;22.03;19.93;;;;;;;;;;519076;28;1645;-74
2023/03/06 00:37:15;;;;;;;23.27;21.07;;;;;;;;;;517037;28;1389;-74
2023/03/06 00:37:30;;;;;;;22.20;20.10;;;;;;;;;;512991;28;1525;-75
2023/03/06 00:37:45;;;;;;;21.20;19.20;;;;;;;;;;517039;28;1514;-73
2023/03/06 00:38:01;;;;;;;21.80;19.77;;;;;;;;;;517170;28;1647;-73
2023/03/06 00:38:16;;;;;;;22.23;20.13;;;;;;;;;;517510;28;1541;-73
2023/03/06 00:38:34;;;;;;;22.10;20.00;;;;;;;;;;519165;28;1416;-74
2023/03/06 00:38:49;;;;;;;21.92;19.83;;;;;;;;;;518237;28;1274;-74
2023/03/06 00:39:05;;;;;;;21.10;19.20;;;;;;;;;;519919;28;1266;-74
2023/03/06 00:39:20;;;;;;;20.97;18.97;;;;;;;;;;519270;28;1650;-74
2023/03/06 00:39:36;;;;;;;20.60;18.60;;;;;;;;;;519514;28;1673;-74
2023/03/06 00:39:51;;;;;;;19.50;17.70;;;;;;;;;;519196;28;1372;-73
2023/03/06 00:40:10;;;;;;;19.47;17.67;;;;;;;;;;519284;28;1420;-74
2023/03/06 00:40:26;;;;;;;20.52;18.52;;;;;;;;;;516709;28;1601;-74
2023/03/06 00:40:41;;;;;;;20.20;18.30;;;;;;;;;;518367;28;1547;-74
2023/03/06 00:40:56;;;;;;;19.20;17.40;;;;;;;;;;519208;28;1654;-74
2023/03/06 00:41:12;;;;;;;18.88;17.08;;;;;;;;;;517176;28;1436;-74
2023/03/06 00:41:27;;;;;;;18.83;17.03;;;;;;;;;;520387;28;1361;-74
2023/03/06 00:41:43;;;;;;;18.25;16.55;;;;;;;;;;520996;28;1695;-74
2023/03/06 00:41:58;;;;;;;18.53;16.73;;;;;;;;;;521151;28;1356;-73
2023/03/06 00:42:14;;;;;;;19.40;17.50;;;;;;;;;;523851;28;1644;-74
2023/03/06 00:42:29;;;;;;;20.55;18.55;;;;;;;;;;523687;28;1477;-74
2023/03/06 00:42:45;;;;;;;20.87;18.87;;;;;;;;;;524095;28;1182;-74
2023/03/06 00:43:01;;;;;;;21.08;19.08;;;;;;;;;;523891;28;1679;-73
2023/03/06 00:43:16;;;;;;;21.50;19.50;;;;;;;;;;521278;28;1376;-74
2023/03/06 00:43:31;;;;;;;21.35;19.35;;;;;;;;;;519046;28;1435;-74
2023/03/06 00:43:47;;;;;;;20.37;18.47;;;;;;;;;;523693;28;1606;-74
2023/03/06 00:44:02;;;;;;;19.97;18.07;;;;;;;;;;521240;28;1668;-74
2023/03/06 00:44:17;;;;;;;19.80;17.85;;;;;;;;;;520920;28;1645;-73
2023/03/06 00:44:33;;;;;;;19.13;17.23;;;;;;;;;;523063;28;1414;-73
2023/03/06 00:44:48;;;;;;;19.20;17.40;;;;;;;;;;522898;28;1200;-73
2023/03/06 00:45:04;;;;;;;19.73;17.83;;;;;;;;;;520334;28;1607;-73
2023/03/06 00:45:19;;;;;;;19.77;17.87;;;;;;;;;;519199;28;1917;-73
2023/03/06 00:45:35;;;;;;;19.10;17.20;;;;;;;;;;518540;28;1582;-74
2023/03/06 00:45:50;;;;;;;18.67;16.77;;;;;;;;;;520992;28;1364;-74
2023/03/06 00:46:05;;;;;;;18.60;16.70;;;;;;;;;;518921;28;1433;-74
2023/03/06 00:46:21;;;;;;;18.60;16.70;;;;;;;;;;521836;28;1323;-73
2023/03/06 00:46:36;;;;;;;18.90;17.00;;;;;;;;;;519921;28;1359;-74
2023/03/06 00:46:51;;;;;;;18.58;16.77;;;;;;;;;;518216;28;1395;-74
2023/03/06 00:47:07;;;;;;;18.33;16.63;;;;;;;;;;518981;28;1306;-74
2023/03/06 00:47:22;;;;;;;18.57;16.77;;;;;;;;;;517226;28;1744;-74
2023/03/06 00:47:38;;;;;;;18.35;16.55;;;;;;;;;;517058;28;1655;-74
2023/03/06 00:47:53;;;;;;;17.98;16.17;;;;;;;;;;519014;28;1418;-73
2023/03/06 00:48:09;;;;;;;17.57;15.87;;;;;;;;;;518896;28;1968;-74
2023/03/06 00:48:24;;;;;;;17.83;16.07;;;;;;;;;;521344;28;1203;-73
2023/03/06 00:48:39;;;;;;;18.33;16.42;;;;;;;;;;518665;28;1388;-73
2023/03/06 00:48:55;;;;;;;18.30;16.50;;;;;;;;;;521945;28;1430;-74
2023/03/06 00:49:10;;;;;;;17.88;16.08;;;;;;;;;;519512;28;1364;-74
2023/03/06 00:49:25;;;;;;;17.80;15.90;;;;;;;;;;518810;28;1232;-74
2023/03/06 00:49:41;;;;;;;17.60;15.90;;;;;;;;;;519783;28;1387;-74
2023/03/06 00:49:57;;;;;;;17.55;15.85;;;;;;;;;;518763;28;1387;-73
2023/03/06 00:50:12;;;;;;;17.83;16.13;;;;;;;;;;520695;28;1416;-74
2023/03/06 00:50:28;;;;;;;18.03;16.33;;;;;;;;;;520236;28;1244;-74
2023/03/06 00:50:43;;;;;;;18.70;16.85;;;;;;;;;;521036;28;1708;-74
2023/03/06 00:50:59;;;;;;;19.10;17.10;;;;;;;;;;518762;28;1294;-74
2023/03/06 00:51:16;;;;;;;19.10;16.52;;;;;;;;;;518112;28;1353;-73
2023/03/06 00:51:31;;;;;;;18.35;16.15;;;;;;;;;;513827;28;1464;-74
2023/03/06 00:51:46;;;;;;;17.13;15.53;;;;;;;;;;515819;28;1212;-74
2023/03/06 00:52:02;;;;;;;17.47;15.77;;;;;;;;;;518839;28;1785;-74
2023/03/06 00:52:17;;;;;;;18.05;16.25;;;;;;;;;;519528;28;1448;-74
2023/03/06 00:52:33;;;;;;;17.90;16.20;;;;;;;;;;518838;28;1423;-74
2023/03/06 00:52:48;;;;;;;18.17;16.38;;;;;;;;;;519887;28;1205;-74
2023/03/06 00:53:03;;;;;;;17.87;16.17;;;;;;;;;;515770;28;1530;-73
2023/03/06 00:53:19;;;;;;;16.87;15.27;;;;;;;;;;518704;28;1741;-74
2023/03/06 00:53:34;;;;;;;16.92;15.23;;;;;;;;;;518422;28;1725;-73
2023/03/06 00:53:49;;;;;;;16.60;15.00;;;;;;;;;;518320;28;1415;-74
2023/03/06 00:54:05;;;;;;;16.03;14.53;;;;;;;;;;521350;28;1302;-74
2023/03/06 00:54:20;;;;;;;16.00;14.50;;;;;;;;;;518517;28;1432;-74
2023/03/06 00:54:35;;;;;;;15.30;13.90;;;;;;;;;;519206;28;1323;-74
2023/03/06 00:54:51;;;;;;;15.32;13.93;;;;;;;;;;518469;28;1510;-74
2023/03/06 00:55:07;;;;;;;16.73;15.13;;;;;;;;;;521446;28;1327;-74
2023/03/06 00:55:22;;;;;;;16.75;15.15;;;;;;;;;;523058;28;1672;-74
2023/03/06 00:55:37;;;;;;;15.30;13.90;;;;;;;;;;523752;28;1323;-74
2023/03/06 00:55:53;;;;;;;15.40;14.00;;;;;;;;;;523110;28;1429;-74
2023/03/06 00:56:08;;;;;;;15.63;14.13;;;;;;;;;;520630;28;1335;-74
2023/03/06 00:56:24;;;;;;;14.70;13.30;;;;;;;;;;520488;28;1659;-74
2023/03/06 00:56:39;;;;;;;14.30;12.90;;;;;;;;;;520299;28;1757;-74
2023/03/06 00:56:55;;;;;;;14.77;13.32;;;;;;;;;;523533;28;1367;-73
2023/03/06 00:57:10;;;;;;;15.47;13.97;;;;;;;;;;521777;28;1430;-74
2023/03/06 00:57:25;;;;;;;15.50;13.90;;;;;;;;;;520566;28;1433;-73
2023/03/06 00:57:41;;;;;;;14.97;13.43;;;;;;;;;;518366;28;1293;-74
2023/03/06 00:57:56;;;;;;;14.60;13.20;;;;;;;;;;521737;28;1492;-73
2023/03/06 00:58:12;;;;;;;14.32;12.93;;;;;;;;;;518030;28;1317;-73
2023/03/06 00:58:27;;;;;;;14.07;12.77;;;;;;;;;;517766;28;1430;-73
2023/03/06 00:58:42;;;;;;;14.65;13.25;;;;;;;;;;516946;28;1761;-74
2023/03/06 00:58:58;;;;;;;14.73;13.33;;;;;;;;;;517654;28;1380;-73
2023/03/06 00:59:13;;;;;;;14.77;13.27;;;;;;;;;;516392;28;1413;-74
2023/03/06 00:59:28;;;;;;;14.77;13.27;;;;;;;;;;517054;28;1256;-74
2023/03/06 00:59:44;;;;;;;14.50;13.10;;;;;;;;;;518261;28;1582;-74
2023/03/06 01:00:01;;;;;;;14.63;13.15;;;;;;;;;;517195;28;1643;-74
2023/03/06 01:00:16;;;;;;;15.10;13.60;;;;;;;;;;517894;28;1490;-73
2023/03/06 01:00:32;;;;;;;15.02;13.55;;;;;;;;;;516557;28;1425;-74
2023/03/06 01:00:47;;;;;;;14.60;13.20;;;;;;;;;;518619;28;1066;-74
2023/03/06 01:01:03;;;;;;;14.98;13.57;;;;;;;;;;521937;28;1681;-74
2023/03/06 01:01:18;;;;;;;14.95;13.55;;;;;;;;;;521855;28;1630;-74
2023/03/06 01:01:34;;;;;;;14.47;13.17;;;;;;;;;;521787;28;1410;-73
2023/03/06 01:01:49;;;;;;;14.30;13.00;;;;;;;;;;521204;28;1387;-73
2023/03/06 01:02:05;;;;;;;14.20;12.90;;;;;;;;;;519780;28;1173;-73
2023/03/06 01:02:20;;;;;;;14.60;13.20;;;;;;;;;;518938;28;1433;-74
2023/03/06 01:02:35;;;;;;;14.70;13.20;;;;;;;;;;515615;28;1382;-74
2023/03/06 01:02:52;;;;;;;13.83;12.53;;;;;;;;;;520078;28;1282;-73
2023/03/06 01:03:08;;;;;;;13.70;12.40;;;;;;;;;;519598;28;1298;-74
2023/03/06 01:03:23;;;;;;;14.17;12.77;;;;;;;;;;522896;28;1730;-74
2023/03/06 01:03:38;;;;;;;14.43;13.00;;;;;;;;;;519982;28;1289;-74
2023/03/06 01:03:53;;;;;;;14.10;12.80;;;;;;;;;;519604;28;1384;-74
2023/03/06 01:04:09;;;;;;;14.17;12.77;;;;;;;;;;518635;28;1288;-74
2023/03/06 01:04:24;;;;;;;14.30;12.90;;;;;;;;;;521558;28;1300;-74
2023/03/06 01:04:40;;;;;;;14.07;12.77;;;;;;;;;;520984;28;1715;-74
2023/03/06 01:04:56;;;;;;;13.32;12.02;;;;;;;;;;519466;28;1352;-73
2023/03/06 01:05:12;;;;;;;13.45;12.05;;;;;;;;;;518193;28;1912;-74
2023/03/06 01:05:34;;;;;;;13.70;12.30;;;;;;;;;;516931;28;1271;-73
2023/03/06 01:05:50;;;;;;;14.00;12.60;;;;;;;;;;516437;28;1772;-74
2023/03/06 01:06:05;;;;;;;13.50;12.20;;;;;;;;;;517088;28;1341;-74
2023/03/06 01:06:20;;;;;;;13.07;11.77;;;;;;;;;;516896;28;1710;-74
2023/03/06 01:06:36;;;;;;;13.13;11.83;;;;;;;;;;519829;28;1405;-74
2023/03/06 01:06:51;;;;;;;12.98;11.77;;;;;;;;;;517575;28;1518;-73
2023/03/06 01:07:07;;;;;;;13.02;11.80;;;;;;;;;;518046;28;1225;-74
2023/03/06 01:07:22;;;;;;;12.50;11.20;;;;;;;;;;516836;28;1603;-73
2023/03/06 01:07:38;;;;;;;12.67;11.37;;;;;;;;;;518164;28;1287;-73
2023/03/06 01:07:53;;;;;;;13.00;11.70;;;;;;;;;;516031;28;1366;-74
2023/03/06 01:08:08;;;;;;;12.87;11.67;;;;;;;;;;515217;28;1190;-74
2023/03/06 01:08:24;;;;;;;13.05;11.85;;;;;;;;;;518857;28;1696;-73
2023/03/06 01:08:39;;;;;;;13.17;11.90;;;;;;;;;;519659;28;1408;-74
2023/03/06 01:08:54;;;;;;;13.00;11.70;;;;;;;;;;519411;28;1498;-74
2023/03/06 01:09:10;;;;;;;12.88;11.55;;;;;;;;;;518659;28;1361;-74
2023/03/06 01:09:25;;;;;;;13.13;11.67;;;;;;;;;;519153;28;1349;-73
2023/03/06 01:09:40;;;;;;;12.93;11.63;;;;;;;;;;518872;28;1645;-74
2023/03/06 01:09:56;;;;;;;12.70;11.50;;;;;;;;;;519795;28;1722;-74
2023/03/06 01:10:11;;;;;;;13.10;11.80;;;;;;;;;;519962;28;1304;-74
2023/03/06 01:10:27;;;;;;;13.20;11.90;;;;;;;;;;518937;28;1479;-73
2023/03/06 01:10:42;;;;;;;13.02;11.80;;;;;;;;;;518577;28;1773;-73
2023/03/06 01:10:57;;;;;;;12.90;11.70;;;;;;;;;;518915;28;1325;-74
2023/03/06 01:11:13;;;;;;;13.10;11.80;;;;;;;;;;521300;28;1451;-74
2023/03/06 01:11:28;;;;;;;13.67;12.27;;;;;;;;;;521068;28;1205;-73
2023/03/06 01:11:44;;;;;;;13.50;12.20;;;;;;;;;;516962;28;1341;-75
2023/03/06 01:11:59;;;;;;;13.40;12.10;;;;;;;;;;522432;28;1767;-75
2023/03/06 01:12:15;;;;;;;13.45;12.15;;;;;;;;;;522006;28;1388;-74
2023/03/06 01:12:30;;;;;;;13.30;12.00;;;;;;;;;;519285;28;1397;-74
2023/03/06 01:12:45;;;;;;;13.03;11.83;;;;;;;;;;518994;28;1181;-74
2023/03/06 01:13:00;;;;;;;12.65;11.45;;;;;;;;;;517215;28;1514;-74
2023/03/06 01:13:16;;;;;;;12.63;11.43;;;;;;;;;;518212;28;1246;-74
2023/03/06 01:13:31;;;;;;;12.87;11.57;;;;;;;;;;520906;28;1320;-74
2023/03/06 01:13:47;;;;;;;12.48;11.25;;;;;;;;;;521534;28;1448;-74
2023/03/06 01:14:02;;;;;;;12.30;11.10;;;;;;;;;;520248;28;1430;-74
2023/03/06 01:14:18;;;;;;;12.60;11.40;;;;;;;;;;521051;28;1660;-74
2023/03/06 01:14:33;;;;;;;13.10;11.80;;;;;;;;;;523539;28;1340;-74
2023/03/06 01:14:49;;;;;;;12.83;11.57;;;;;;;;;;520484;28;1248;-74
2023/03/06 01:15:05;;;;;;;12.88;11.68;;;;;;;;;;519837;28;1572;-74
2023/03/06 01:15:21;;;;;;;12.90;11.60;;;;;;;;;;520338;28;1563;-73
2023/03/06 01:15:36;;;;;;;12.80;11.50;;;;;;;;;;518440;28;1467;-74
2023/03/06 01:15:52;;;;;;;12.50;11.27;;;;;;;;;;518895;28;1433;-74
2023/03/06 01:16:09;;;;;;;12.63;11.33;;;;;;;;;;521558;28;1464;-74
2023/03/06 01:16:24;;;;;;;12.70;11.40;;;;;;;;;;520623;28;1243;-73
2023/03/06 01:16:40;;;;;;;12.77;11.47;;;;;;;;;;521002;28;1450;-74
2023/03/06 01:16:55;;;;;;;12.87;11.57;;;;;;;;;;518345;28;1376;-74
2023/03/06 01:17:10;;;;;;;12.55;11.35;;;;;;;;;;517100;28;1603;-74
2023/03/06 01:17:26;;;;;;;12.33;11.13;;;;;;;;;;519128;28;1269;-74
2023/03/06 01:17:41;;;;;;;12.70;11.40;;;;;;;;;;517747;28;1571;-74
2023/03/06 01:17:56;;;;;;;12.63;11.43;;;;;;;;;;518532;28;1499;-75
2023/03/06 01:18:17;;;;;;;12.48;11.27;;;;;;;;;;327099;28;10000742;-74
2023/03/06 01:18:32;;;;;;;12.84;11.54;;;;;;;;;;172449;28;10000977;-74
2023/03/06 01:18:50;;;;;;;13.20;11.80;;;;;;;;;;518766;28;1298;-74
2023/03/06 01:19:05;;;;;;;13.05;11.75;;;;;;;;;;519008;28;1313;-75
2023/03/06 01:19:20;;;;;;;13.10;11.83;;;;;;;;;;518782;28;1422;-74
2023/03/06 01:19:36;;;;;;;12.97;11.77;;;;;;;;;;516793;28;1444;-74
2023/03/06 01:19:51;;;;;;;12.70;11.50;;;;;;;;;;516364;28;1832;-74
2023/03/06 01:20:07;;;;;;;12.53;11.33;;;;;;;;;;516679;28;1354;-74
2023/03/06 01:20:22;;;;;;;12.88;11.60;;;;;;;;;;515958;28;1721;-74
2023/03/06 01:20:38;;;;;;;12.83;11.53;;;;;;;;;;519399;28;1502;-74
2023/03/06 01:20:53;;;;;;;12.60;11.30;;;;;;;;;;519585;28;1406;-74
2023/03/06 01:21:08;;;;;;;12.10;10.90;;;;;;;;;;518453;28;1113;-74
2023/03/06 01:21:24;;;;;;;12.13;10.93;;;;;;;;;;519148;28;1678;-75
2023/03/06 01:21:39;;;;;;;12.90;11.60;;;;;;;;;;518668;28;1677;-74
2023/03/06 01:21:55;;;;;;;12.83;11.53;;;;;;;;;;520964;28;1363;-74
2023/03/06 01:22:10;;;;;;;12.20;11.00;;;;;;;;;;521691;28;1434;-74
2023/03/06 01:22:25;;;;;;;12.37;11.17;;;;;;;;;;521214;28;1307;-74
2023/03/06 01:22:41;;;;;;;12.63;11.43;;;;;;;;;;518031;28;1235;-75
2023/03/06 01:22:56;;;;;;;12.83;11.53;;;;;;;;;;520549;28;1375;-74
2023/03/06 01:23:11;;;;;;;13.07;11.77;;;;;;;;;;518990;28;1282;-75
2023/03/06 01:23:27;;;;;;;12.98;11.73;;;;;;;;;;519327;28;1202;-74
2023/03/06 01:23:42;;;;;;;12.83;11.63;;;;;;;;;;520875;28;1234;-75
2023/03/06 01:23:58;;;;;;;12.80;11.50;;;;;;;;;;518661;28;1416;-74
2023/03/06 01:24:13;;;;;;;12.70;11.50;;;;;;;;;;521845;28;1290;-74
2023/03/06 01:24:28;;;;;;;12.93;11.73;;;;;;;;;;518805;28;1181;-74
2023/03/06 01:24:43;;;;;;;12.75;11.55;;;;;;;;;;516592;28;1522;-74
2023/03/06 01:24:59;;;;;;;12.53;11.33;;;;;;;;;;518967;28;1515;-74
2023/03/06 01:25:14;;;;;;;12.73;11.53;;;;;;;;;;520206;28;1918;-75
2023/03/06 01:25:30;;;;;;;12.85;11.65;;;;;;;;;;519508;28;1365;-74
2023/03/06 01:25:45;;;;;;;13.10;11.80;;;;;;;;;;521446;28;1244;-74
2023/03/06 01:26:00;;;;;;;13.00;11.70;;;;;;;;;;517698;28;1325;-74
2023/03/06 01:26:16;;;;;;;12.95;11.65;;;;;;;;;;521679;28;1379;-74
2023/03/06 01:26:32;;;;;;;13.23;11.93;;;;;;;;;;521182;28;1377;-74
2023/03/06 01:26:47;;;;;;;13.38;12.07;;;;;;;;;;517134;28;1523;-74
2023/03/06 01:27:02;;;;;;;13.13;11.88;;;;;;;;;;515360;28;1369;-74
2023/03/06 01:27:18;;;;;;;13.07;11.80;;;;;;;;;;517446;28;1495;-74
2023/03/06 01:27:33;;;;;;;13.27;11.90;;;;;;;;;;515492;28;1338;-73
2023/03/06 01:27:48;;;;;;;12.77;11.50;;;;;;;;;;519187;28;1297;-74
2023/03/06 01:28:04;;;;;;;12.93;11.70;;;;;;;;;;517146;28;1575;-74
2023/03/06 01:28:19;;;;;;;12.87;11.67;;;;;;;;;;519175;28;1320;-74
2023/03/06 01:28:37;;;;;;;12.93;11.73;;;;;;;;;;520398;28;1397;-74
2023/03/06 01:28:53;;;;;;;13.00;11.70;;;;;;;;;;518338;28;1447;-74
2023/03/06 01:29:08;;;;;;;13.30;11.98;;;;;;;;;;520019;28;1240;-74
2023/03/06 01:29:25;;;;;;;13.60;12.20;;;;;;;;;;521351;28;1557;-74
2023/03/06 01:29:40;;;;;;;13.57;12.18;;;;;;;;;;518608;28;1514;-74
2023/03/06 01:29:56;;;;;;;13.10;11.83;;;;;;;;;;517855;28;1326;-74
2023/03/06 01:30:11;;;;;;;12.87;11.57;;;;;;;;;;520697;28;1462;-74
2023/03/06 01:30:27;;;;;;;13.20;11.90;;;;;;;;;;518426;28;1178;-74
2023/03/06 01:30:42;;;;;;;13.20;12.00;;;;;;;;;;517381;28;1729;-74
2023/03/06 01:30:57;;;;;;;13.02;11.75;;;;;;;;;;518942;28;1325;-74
2023/03/06 01:31:13;;;;;;;12.60;11.40;;;;;;;;;;519018;28;1432;-74
2023/03/06 01:31:28;;;;;;;13.03;11.73;;;;;;;;;;521052;28;1292;-74
2023/03/06 01:31:44;;;;;;;13.77;12.38;;;;;;;;;;520622;28;1760;-74
2023/03/06 01:31:59;;;;;;;13.60;12.23;;;;;;;;;;522164;28;1410;-75
2023/03/06 01:32:14;;;;;;;13.10;11.80;;;;;;;;;;523274;28;1339;-75
2023/03/06 01:32:30;;;;;;;12.70;11.50;;;;;;;;;;520957;28;1372;-74
2023/03/06 01:32:45;;;;;;;12.82;11.63;;;;;;;;;;521325;28;1141;-74
2023/03/06 01:33:01;;;;;;;13.07;11.80;;;;;;;;;;519924;28;1375;-75
2023/03/06 01:33:16;;;;;;;13.13;11.83;;;;;;;;;;522906;28;1705;-73
2023/03/06 01:33:32;;;;;;;13.23;11.87;;;;;;;;;;522463;28;1363;-75
2023/03/06 01:33:47;;;;;;;12.90;11.60;;;;;;;;;;521405;28;1310;-74
2023/03/06 01:34:03;;;;;;;12.77;11.57;;;;;;;;;;518527;28;1546;-74
2023/03/06 01:34:18;;;;;;;13.18;11.98;;;;;;;;;;521296;28;1441;-74
2023/03/06 01:34:33;;;;;;;13.30;12.00;;;;;;;;;;518260;28;1351;-74